Time;durP1;ratioP1;P1;durP2;ratioP2;P2;SDS_P1;SDS_P2;PMS_P1;PMS_P2;Temp;Humidity;BMP_temperature;BMP_pressure;BME280_temperature;BME280_humidity;BME280_pressure;Samples;Min_cycle;Max_cycle;Signal;HPM_P1;HPM_P2
2023/03/10 00:01:31;;;;;;;;;;;10.60;93.80;;;;;;5086724;28;20495;-79
2023/03/10 00:03:58;;;;;;;;;;;10.60;93.80;;;;;;5090774;28;19935;-78
2023/03/10 00:06:25;;;;;;;;;;;10.60;94.20;;;;;;5090582;28;19923;-78
2023/03/10 00:08:52;;;;;;;;;;;10.60;94.00;;;;;;5094591;28;19939;-78
2023/03/10 00:11:19;;;;;;;;;;;10.50;94.00;;;;;;5093714;28;20274;-77
2023/03/10 00:13:45;;;;;;;;;;;10.60;94.00;;;;;;5094934;28;19936;-79
2023/03/10 00:16:16;;;;;;;;;;;10.60;94.10;;;;;;5096766;28;19939;-80
2023/03/10 00:18:44;;;;;;;;;;;10.50;94.10;;;;;;5095250;28;20026;-79
2023/03/10 00:21:13;;;;;;;;;;;10.60;94.10;;;;;;5097077;28;19928;-80
2023/03/10 00:23:39;;;;;;;;;;;10.50;94.20;;;;;;5095059;28;20428;-80
2023/03/10 00:26:06;;;;;;;;;;;10.50;94.20;;;;;;5102450;28;19969;-78
2023/03/10 00:28:32;;;;;;;;;;;10.50;94.20;;;;;;5102691;28;19952;-78
2023/03/10 00:31:00;;;;;;;;;;;10.50;94.20;;;;;;5102063;28;19928;-79
2023/03/10 00:33:29;;;;;;;;;;;10.50;94.30;;;;;;5104386;28;20343;-79
2023/03/10 00:36:05;;;;;;;;;;;10.50;94.30;;;;;;5098719;28;19927;-79
2023/03/10 00:38:31;;;;;;;;;;;10.50;94.40;;;;;;5103129;28;19951;-78
2023/03/10 00:40:58;;;;;;;;;;;10.50;94.40;;;;;;5096842;28;19978;-78
2023/03/10 00:43:25;;;;;;;;;;;10.50;94.50;;;;;;5096412;28;20685;-78
2023/03/10 00:45:51;;;;;;;;;;;10.50;94.60;;;;;;5099352;28;20819;-80
2023/03/10 00:48:18;;;;;;;;;;;10.40;94.60;;;;;;5099799;28;19939;-79
2023/03/10 00:50:46;;;;;;;;;;;10.50;94.70;;;;;;5098846;28;19935;-80
2023/03/10 00:53:12;;;;;;;;;;;10.50;94.80;;;;;;5100000;28;19932;-79
2023/03/10 00:55:39;;;;;;;;;;;10.50;94.80;;;;;;5099837;28;19957;-79
2023/03/10 00:58:05;;;;;;;;;;;10.40;94.90;;;;;;5102513;27;19973;-78
2023/03/10 01:00:32;;;;;;;;;;;10.40;95.00;;;;;;5104563;27;19939;-80
2023/03/10 01:02:59;;;;;;;;;;;10.40;95.10;;;;;;5103282;28;20309;-79
2023/03/10 01:05:27;;;;;;;;;;;10.40;95.20;;;;;;5111746;28;19931;-79
2023/03/10 01:07:55;;;;;;;;;;;10.40;95.20;;;;;;5104116;28;20323;-79
2023/03/10 01:10:22;;;;;;;;;;;10.30;95.30;;;;;;5098701;28;19932;-80
2023/03/10 01:12:48;;;;;;;;;;;10.30;95.30;;;;;;5103094;28;20047;-79
2023/03/10 01:15:15;;;;;;;;;;;10.40;95.50;;;;;;5101211;27;19980;-80
2023/03/10 01:17:41;;;;;;;;;;;10.30;95.50;;;;;;5100841;27;19971;-80
2023/03/10 01:20:12;;;;;;;;;;;10.30;95.60;;;;;;5103220;28;19928;-79
2023/03/10 01:22:39;;;;;;;;;;;10.30;95.70;;;;;;5099521;28;20666;-81
2023/03/10 01:25:07;;;;;;;;;;;10.30;95.80;;;;;;5101805;27;19932;-79
2023/03/10 01:27:34;;;;;;;;;;;10.30;95.80;;;;;;5100962;28;19932;-79
2023/03/10 01:30:00;;;;;;;;;;;10.30;95.90;;;;;;5098308;28;19927;-80
2023/03/10 01:32:27;;;;;;;;;;;10.30;96.00;;;;;;5097462;28;20305;-80
2023/03/10 01:34:53;;;;;;;;;;;10.30;96.10;;;;;;5104620;28;19977;-78
2023/03/10 01:37:20;;;;;;;;;;;10.20;96.10;;;;;;5099930;27;19962;-79
2023/03/10 01:39:47;;;;;;;;;;;10.20;96.20;;;;;;5102385;28;20519;-79
2023/03/10 01:42:14;;;;;;;;;;;10.20;96.20;;;;;;5097959;28;19954;-79
2023/03/10 01:44:41;;;;;;;;;;;10.20;96.30;;;;;;5099878;27;19977;-79
2023/03/10 01:47:07;;;;;;;;;;;10.20;96.30;;;;;;5098682;27;19932;-78
2023/03/10 01:49:39;;;;;;;;;;;10.20;96.30;;;;;;5099238;28;19935;-80
2023/03/10 01:52:08;;;;;;;;;;;10.20;96.30;;;;;;5098991;28;19924;-80
2023/03/10 01:54:39;;;;;;;;;;;10.20;96.40;;;;;;5097371;27;19928;-80
2023/03/10 01:57:06;;;;;;;;;;;10.20;96.40;;;;;;5105570;28;19981;-80
2023/03/10 01:59:34;;;;;;;;;;;10.20;96.40;;;;;;5102939;27;19932;-79
2023/03/10 02:02:01;;;;;;;;;;;10.10;96.50;;;;;;5096041;27;19997;-79
2023/03/10 02:04:34;;;;;;;;;;;10.10;96.60;;;;;;5095413;27;21736;-80
2023/03/10 02:07:01;;;;;;;;;;;10.10;96.60;;;;;;5096079;28;20477;-79
2023/03/10 02:09:28;;;;;;;;;;;10.10;96.70;;;;;;5103299;28;19928;-79
2023/03/10 02:11:57;;;;;;;;;;;10.10;96.80;;;;;;5101241;28;19973;-79
2023/03/10 02:14:24;;;;;;;;;;;10.10;96.90;;;;;;5100317;28;19932;-80
2023/03/10 02:16:52;;;;;;;;;;;10.10;97.00;;;;;;5100390;28;19928;-81
2023/03/10 02:19:25;;;;;;;;;;;10.00;97.10;;;;;;5098132;28;19947;-78
2023/03/10 02:21:54;;;;;;;;;;;10.00;97.20;;;;;;5095907;27;19989;-78
2023/03/10 02:24:24;;;;;;;;;;;10.00;97.20;;;;;;5095620;28;19928;-80
2023/03/10 02:26:54;;;;;;;;;;;10.00;97.30;;;;;;5096834;28;20425;-79
2023/03/10 02:29:23;;;;;;;;;;;10.00;97.40;;;;;;5100985;28;20006;-80
2023/03/10 02:31:50;;;;;;;;;;;10.00;97.50;;;;;;5096596;27;19932;-79
2023/03/10 02:34:17;;;;;;;;;;;10.00;97.60;;;;;;5097459;28;19982;-79
2023/03/10 02:36:43;;;;;;;;;;;10.00;97.60;;;;;;5101158;28;20036;-81
2023/03/10 02:39:10;;;;;;;;;;;10.00;97.90;;;;;;5103308;27;19928;-80
2023/03/10 02:41:37;;;;;;;;;;;10.00;97.60;;;;;;5105658;28;19974;-79
2023/03/10 02:44:05;;;;;;;;;;;10.00;97.60;;;;;;5098812;27;19927;-79
2023/03/10 02:46:33;;;;;;;;;;;10.00;97.70;;;;;;5101541;28;19938;-79
2023/03/10 02:49:00;;;;;;;;;;;10.00;97.70;;;;;;5101717;28;19931;-79
2023/03/10 02:51:28;;;;;;;;;;;9.90;97.60;;;;;;5098929;27;19931;-79
2023/03/10 02:53:54;;;;;;;;;;;9.90;97.70;;;;;;5097945;28;20202;-80
2023/03/10 02:56:21;;;;;;;;;;;9.90;97.70;;;;;;5105552;28;21000;-80
2023/03/10 02:58:47;;;;;;;;;;;9.90;97.70;;;;;;5101119;27;20659;-81
2023/03/10 03:01:14;;;;;;;;;;;9.90;97.70;;;;;;5103630;27;19981;-80
2023/03/10 03:03:42;;;;;;;;;;;9.90;97.60;;;;;;5098258;27;19928;-79
2023/03/10 03:06:09;;;;;;;;;;;9.90;97.70;;;;;;5101421;28;19939;-79
2023/03/10 03:08:36;;;;;;;;;;;9.90;97.70;;;;;;5103385;28;19944;-79
2023/03/10 03:11:03;;;;;;;;;;;9.90;97.70;;;;;;5102866;28;19993;-79
2023/03/10 03:13:29;;;;;;;;;;;9.90;97.80;;;;;;5101413;28;19935;-79
2023/03/10 03:15:56;;;;;;;;;;;9.90;97.70;;;;;;5097630;27;19932;-80
2023/03/10 03:18:22;;;;;;;;;;;9.90;97.70;;;;;;5096258;27;19942;-80
2023/03/10 03:20:50;;;;;;;;;;;9.90;97.70;;;;;;5096404;28;19934;-79
2023/03/10 03:23:17;;;;;;;;;;;9.90;97.70;;;;;;5094356;28;19927;-79
2023/03/10 03:25:43;;;;;;;;;;;9.90;97.70;;;;;;5100468;28;19936;-79
2023/03/10 03:28:11;;;;;;;;;;;9.90;97.80;;;;;;5100008;28;19939;-81
2023/03/10 03:30:37;;;;;;;;;;;9.90;97.70;;;;;;5096414;28;19965;-80
2023/03/10 03:33:04;;;;;;;;;;;9.90;97.70;;;;;;5097630;27;19932;-80
2023/03/10 03:35:32;;;;;;;;;;;9.90;97.80;;;;;;5097008;28;19928;-78
2023/03/10 03:38:00;;;;;;;;;;;9.90;97.80;;;;;;5096716;28;20001;-80
2023/03/10 03:40:28;;;;;;;;;;;9.90;97.70;;;;;;5098233;27;19935;-80
2023/03/10 03:42:55;;;;;;;;;;;9.90;97.70;;;;;;5098910;27;19932;-79
2023/03/10 03:45:23;;;;;;;;;;;9.90;97.80;;;;;;5097417;28;20046;-80
2023/03/10 03:47:50;;;;;;;;;;;9.90;97.90;;;;;;5101686;28;19982;-80
2023/03/10 03:50:17;;;;;;;;;;;9.90;97.90;;;;;;5096891;28;19932;-81
2023/03/10 03:52:44;;;;;;;;;;;9.90;97.90;;;;;;5106695;28;20825;-80
2023/03/10 03:55:13;;;;;;;;;;;9.90;98.00;;;;;;5102508;28;19932;-80
2023/03/10 03:57:40;;;;;;;;;;;9.90;98.00;;;;;;5103851;27;19932;-79
2023/03/10 04:00:08;;;;;;;;;;;9.80;98.00;;;;;;5103834;28;19980;-79
2023/03/10 04:02:34;;;;;;;;;;;9.90;98.00;;;;;;5099921;28;19957;-79
2023/03/10 04:05:02;;;;;;;;;;;9.90;98.00;;;;;;5107204;28;19938;-80
2023/03/10 04:07:28;;;;;;;;;;;9.90;98.00;;;;;;5104057;28;19927;-79
2023/03/10 04:09:55;;;;;;;;;;;9.90;98.00;;;;;;5101325;27;19981;-79
2023/03/10 04:12:24;;;;;;;;;;;9.90;98.00;;;;;;5099646;28;19932;-80
2023/03/10 04:14:50;;;;;;;;;;;9.90;98.00;;;;;;5103281;28;19928;-79
2023/03/10 04:17:17;;;;;;;;;;;9.90;98.00;;;;;;5096873;28;19970;-79
2023/03/10 04:19:43;;;;;;;;;;;9.90;97.90;;;;;;5106263;28;19992;-79
2023/03/10 04:22:10;;;;;;;;;;;9.90;97.90;;;;;;5103354;28;19931;-80
2023/03/10 04:24:37;;;;;;;;;;;9.80;97.90;;;;;;5100481;28;19950;-80
2023/03/10 04:27:04;;;;;;;;;;;9.80;97.90;;;;;;5106693;28;19928;-79
2023/03/10 04:29:31;;;;;;;;;;;9.90;97.90;;;;;;5105619;28;20073;-79
2023/03/10 04:31:58;;;;;;;;;;;9.90;97.90;;;;;;5105679;28;19931;-81
2023/03/10 04:34:24;;;;;;;;;;;9.80;97.80;;;;;;5103268;28;19954;-79
2023/03/10 04:36:51;;;;;;;;;;;9.80;97.80;;;;;;5107358;28;19927;-80
2023/03/10 04:39:18;;;;;;;;;;;9.80;97.80;;;;;;5099894;28;19953;-81
2023/03/10 04:41:44;;;;;;;;;;;9.80;97.70;;;;;;5102853;28;19934;-80
2023/03/10 04:44:11;;;;;;;;;;;9.80;97.70;;;;;;5108075;28;19928;-79
2023/03/10 04:46:39;;;;;;;;;;;9.80;97.70;;;;;;5103546;28;19927;-80
2023/03/10 04:49:06;;;;;;;;;;;9.80;97.80;;;;;;5106084;28;19928;-80
2023/03/10 04:51:33;;;;;;;;;;;9.80;97.80;;;;;;5114364;28;19928;-79
2023/03/10 04:54:00;;;;;;;;;;;9.80;97.80;;;;;;5101623;28;19935;-80
2023/03/10 04:56:26;;;;;;;;;;;9.80;97.80;;;;;;5107363;28;19955;-80
2023/03/10 04:58:53;;;;;;;;;;;9.80;97.80;;;;;;5103397;28;19927;-79
2023/03/10 05:01:20;;;;;;;;;;;9.70;97.70;;;;;;5086777;28;19925;-79
2023/03/10 05:03:48;;;;;;;;;;;9.80;97.80;;;;;;5087593;28;20351;-80
2023/03/10 05:06:15;;;;;;;;;;;9.80;97.80;;;;;;5080338;28;19932;-80
2023/03/10 05:08:41;;;;;;;;;;;9.70;97.80;;;;;;5081848;28;19928;-80
2023/03/10 05:11:08;;;;;;;;;;;9.80;97.80;;;;;;5080815;28;20254;-80
2023/03/10 05:13:35;;;;;;;;;;;9.80;97.80;;;;;;5084560;28;19928;-79
2023/03/10 05:16:02;;;;;;;;;;;9.80;97.70;;;;;;5090464;28;19932;-79
2023/03/10 05:18:28;;;;;;;;;;;9.80;97.70;;;;;;5105955;28;19928;-79
2023/03/10 05:20:57;;;;;;;;;;;9.80;97.70;;;;;;5101777;28;20409;-78
2023/03/10 05:23:24;;;;;;;;;;;9.70;97.70;;;;;;5105393;28;19931;-78
2023/03/10 05:25:50;;;;;;;;;;;9.70;97.60;;;;;;5100778;28;19923;-80
2023/03/10 05:28:17;;;;;;;;;;;9.70;97.60;;;;;;5099166;28;19932;-78
2023/03/10 05:30:44;;;;;;;;;;;9.70;97.70;;;;;;5100097;28;19931;-79
2023/03/10 05:33:10;;;;;;;;;;;9.70;97.60;;;;;;5101017;28;19969;-79
2023/03/10 05:35:37;;;;;;;;;;;9.70;97.60;;;;;;5094669;28;19932;-80
2023/03/10 05:38:05;;;;;;;;;;;9.70;97.60;;;;;;5099383;28;19932;-79
2023/03/10 05:40:31;;;;;;;;;;;9.70;97.60;;;;;;5094476;28;19939;-80
2023/03/10 05:42:58;;;;;;;;;;;9.70;97.60;;;;;;5094600;28;19927;-79
2023/03/10 05:45:24;;;;;;;;;;;9.70;97.60;;;;;;5105682;28;19932;-79
2023/03/10 05:47:51;;;;;;;;;;;9.70;97.60;;;;;;5106945;27;19957;-79
2023/03/10 05:50:18;;;;;;;;;;;9.60;97.60;;;;;;5106292;28;19932;-79
2023/03/10 05:52:44;;;;;;;;;;;9.60;97.50;;;;;;5100278;28;19935;-80
2023/03/10 05:55:14;;;;;;;;;;;9.60;97.50;;;;;;5101018;27;19923;-81
2023/03/10 05:57:40;;;;;;;;;;;9.60;97.50;;;;;;5099767;28;19928;-80
2023/03/10 06:00:09;;;;;;;;;;;9.60;97.50;;;;;;5100614;28;19936;-80
2023/03/10 06:02:36;;;;;;;;;;;9.60;97.40;;;;;;5099463;28;19932;-79
2023/03/10 06:05:02;;;;;;;;;;;9.60;97.40;;;;;;5101155;27;19993;-81
2023/03/10 06:07:29;;;;;;;;;;;9.60;97.30;;;;;;5100585;28;19935;-82
2023/03/10 06:09:55;;;;;;;;;;;9.60;97.30;;;;;;5096699;28;19935;-81
2023/03/10 06:12:23;;;;;;;;;;;9.60;97.30;;;;;;5102038;28;19928;-81
2023/03/10 06:14:50;;;;;;;;;;;9.60;97.30;;;;;;5099603;28;19982;-79
2023/03/10 06:17:16;;;;;;;;;;;9.60;97.30;;;;;;5095791;27;20469;-81
2023/03/10 06:19:43;;;;;;;;;;;9.60;97.20;;;;;;5096251;28;19977;-81
2023/03/10 06:22:09;;;;;;;;;;;9.60;97.20;;;;;;5107179;27;20081;-80
2023/03/10 06:24:36;;;;;;;;;;;9.60;97.10;;;;;;5100722;28;19932;-81
2023/03/10 06:27:02;;;;;;;;;;;9.60;97.10;;;;;;5097373;28;20664;-80
2023/03/10 06:29:30;;;;;;;;;;;9.50;97.00;;;;;;5095106;28;19973;-79
2023/03/10 06:31:57;;;;;;;;;;;9.60;97.00;;;;;;5100830;28;19932;-80
2023/03/10 06:34:23;;;;;;;;;;;9.60;96.90;;;;;;5100887;28;19924;-80
2023/03/10 06:36:50;;;;;;;;;;;9.60;96.80;;;;;;5093320;28;19942;-80
2023/03/10 06:39:16;;;;;;;;;;;9.50;96.80;;;;;;5097347;28;20775;-79
2023/03/10 06:41:43;;;;;;;;;;;9.50;96.70;;;;;;5088489;27;20477;-79
2023/03/10 06:44:17;;;;;;;;;;;9.60;96.70;;;;;;5096353;28;19936;-79
2023/03/10 06:46:45;;;;;;;;;;;9.60;96.70;;;;;;5092321;28;19935;-80
2023/03/10 06:49:11;;;;;;;;;;;9.50;96.70;;;;;;5103285;27;19939;-80
2023/03/10 06:51:38;;;;;;;;;;;9.50;96.70;;;;;;5091369;28;19932;-79
2023/03/10 06:54:05;;;;;;;;;;;9.50;96.70;;;;;;5096263;28;19931;-80
2023/03/10 06:56:31;;;;;;;;;;;9.50;96.60;;;;;;5094274;27;19931;-80
2023/03/10 06:58:58;;;;;;;;;;;9.60;96.70;;;;;;5095465;28;20015;-80
2023/03/10 07:01:26;;;;;;;;;;;9.50;96.60;;;;;;5098860;28;19977;-79
2023/03/10 07:03:54;;;;;;;;;;;9.50;96.60;;;;;;5094134;28;19932;-70
2023/03/10 07:06:21;;;;;;;;;;;9.60;96.60;;;;;;5095987;28;19927;-70
2023/03/10 07:08:48;;;;;;;;;;;9.50;96.60;;;;;;5095785;28;19938;-71
2023/03/10 07:11:14;;;;;;;;;;;9.50;96.60;;;;;;5093615;28;19928;-70
2023/03/10 07:13:41;;;;;;;;;;;9.50;96.60;;;;;;5100528;27;20023;-70
2023/03/10 07:16:08;;;;;;;;;;;9.50;96.60;;;;;;5095421;28;20484;-71
2023/03/10 07:18:34;;;;;;;;;;;9.50;96.60;;;;;;5095816;27;19962;-72
2023/03/10 07:21:06;;;;;;;;;;;9.50;96.60;;;;;;5099238;28;19981;-70
2023/03/10 07:23:33;;;;;;;;;;;9.50;96.60;;;;;;5101183;28;19927;-73
2023/03/10 07:26:00;;;;;;;;;;;9.50;96.60;;;;;;5096524;28;20018;-71
2023/03/10 07:28:27;;;;;;;;;;;9.50;96.50;;;;;;5103141;28;19924;-70
2023/03/10 07:30:55;;;;;;;;;;;9.50;96.50;;;;;;5098739;28;19931;-72
2023/03/10 07:33:22;;;;;;;;;;;9.50;96.50;;;;;;5101951;28;19934;-70
2023/03/10 07:35:48;;;;;;;;;;;9.60;96.50;;;;;;5091811;28;19936;-70
2023/03/10 07:38:16;;;;;;;;;;;9.60;96.50;;;;;;5093490;28;19931;-70
2023/03/10 07:40:43;;;;;;;;;;;9.60;96.50;;;;;;5095261;28;19932;-73
2023/03/10 07:43:09;;;;;;;;;;;9.60;96.70;;;;;;5095588;28;19928;-70
2023/03/10 07:45:37;;;;;;;;;;;9.60;96.80;;;;;;5097826;27;19927;-72
2023/03/10 07:48:03;;;;;;;;;;;9.60;97.00;;;;;;5094567;28;19939;-71
2023/03/10 07:50:30;;;;;;;;;;;9.50;97.20;;;;;;5092654;28;19932;-70
2023/03/10 07:52:56;;;;;;;;;;;9.50;97.40;;;;;;5090962;28;19928;-70
2023/03/10 07:55:24;;;;;;;;;;;9.50;97.50;;;;;;5094438;28;19973;-71
2023/03/10 07:57:51;;;;;;;;;;;9.50;97.70;;;;;;5090545;28;19928;-71
2023/03/10 08:00:18;;;;;;;;;;;9.50;97.90;;;;;;5087859;28;19936;-69
2023/03/10 08:02:44;;;;;;;;;;;9.50;97.90;;;;;;5096201;28;19954;-71
2023/03/10 08:05:13;;;;;;;;;;;9.50;98.00;;;;;;5091270;28;19928;-70
2023/03/10 08:07:40;;;;;;;;;;;9.50;98.00;;;;;;5089600;28;20175;-71
2023/03/10 08:10:06;;;;;;;;;;;9.50;97.90;;;;;;5091034;28;19928;-71
2023/03/10 08:12:35;;;;;;;;;;;9.50;97.80;;;;;;5095364;28;19990;-70
2023/03/10 08:15:01;;;;;;;;;;;9.40;97.80;;;;;;5090116;28;20494;-71
2023/03/10 08:17:29;;;;;;;;;;;9.40;97.80;;;;;;5094548;28;19931;-70
2023/03/10 08:19:56;;;;;;;;;;;9.40;97.80;;;;;;5098688;28;19932;-71
2023/03/10 08:22:22;;;;;;;;;;;9.40;97.70;;;;;;5095053;28;20716;-71
2023/03/10 08:24:49;;;;;;;;;;;9.40;97.80;;;;;;5098344;28;19928;-71
2023/03/10 08:27:15;;;;;;;;;;;9.40;97.80;;;;;;5096865;28;20582;-70
2023/03/10 08:29:43;;;;;;;;;;;9.30;97.80;;;;;;5097365;28;19928;-72
2023/03/10 08:32:10;;;;;;;;;;;9.30;97.90;;;;;;5095655;28;19932;-72
2023/03/10 08:34:37;;;;;;;;;;;9.30;97.90;;;;;;5099538;28;19940;-72
2023/03/10 08:37:04;;;;;;;;;;;9.30;98.00;;;;;;5092206;28;19947;-70
2023/03/10 08:39:30;;;;;;;;;;;9.30;98.10;;;;;;5096680;28;19988;-71
2023/03/10 08:41:57;;;;;;;;;;;9.30;98.20;;;;;;5092488;28;19934;-72
2023/03/10 08:44:23;;;;;;;;;;;9.30;98.20;;;;;;5099036;28;19931;-70
2023/03/10 08:46:52;;;;;;;;;;;9.20;98.20;;;;;;5095287;28;19931;-72
2023/03/10 08:49:19;;;;;;;;;;;9.20;98.20;;;;;;5098228;28;19936;-70
2023/03/10 08:51:46;;;;;;;;;;;9.30;98.30;;;;;;5094408;28;19936;-70
2023/03/10 08:54:14;;;;;;;;;;;9.30;98.30;;;;;;5093803;28;19928;-71
2023/03/10 08:56:40;;;;;;;;;;;9.30;98.30;;;;;;5096935;28;19933;-70
2023/03/10 08:59:07;;;;;;;;;;;9.30;98.30;;;;;;5095972;28;19928;-71
2023/03/10 09:01:34;;;;;;;;;;;9.30;98.30;;;;;;5094130;28;19932;-71
2023/03/10 09:04:04;;;;;;;;;;;9.20;98.40;;;;;;5097133;28;19965;-70
2023/03/10 09:06:30;;;;;;;;;;;9.30;98.50;;;;;;5096376;28;19969;-71
2023/03/10 09:08:57;;;;;;;;;;;9.30;98.60;;;;;;5092870;28;19953;-71
2023/03/10 09:11:25;;;;;;;;;;;9.20;98.60;;;;;;5090758;28;19935;-71
2023/03/10 09:13:52;;;;;;;;;;;9.20;98.70;;;;;;5092998;28;19935;-70
2023/03/10 09:16:19;;;;;;;;;;;9.30;98.80;;;;;;5090139;28;19932;-72
2023/03/10 09:18:45;;;;;;;;;;;9.20;98.70;;;;;;5097976;28;19931;-69
2023/03/10 09:21:14;;;;;;;;;;;9.30;98.80;;;;;;5101775;28;19932;-70
2023/03/10 09:23:41;;;;;;;;;;;9.30;98.90;;;;;;5092018;28;19932;-70
2023/03/10 09:26:08;;;;;;;;;;;9.30;98.90;;;;;;5094097;28;20451;-70
2023/03/10 09:28:34;;;;;;;;;;;9.20;98.90;;;;;;5096904;28;19924;-70
2023/03/10 09:31:01;;;;;;;;;;;9.30;99.00;;;;;;5097493;27;20526;-70
2023/03/10 09:33:27;;;;;;;;;;;9.30;99.10;;;;;;5097570;27;20632;-71
2023/03/10 09:35:56;;;;;;;;;;;9.30;99.20;;;;;;5094977;28;19927;-70
2023/03/10 09:38:23;;;;;;;;;;;9.30;99.10;;;;;;5094199;28;20002;-70
2023/03/10 09:40:52;;;;;;;;;;;9.30;99.10;;;;;;5098141;28;19927;-72
2023/03/10 09:43:19;;;;;;;;;;;9.30;99.10;;;;;;5098989;28;20382;-70
2023/03/10 09:45:47;;;;;;;;;;;9.20;99.10;;;;;;5106515;27;20394;-70
2023/03/10 09:48:22;;;;;;;;;;;9.30;99.20;;;;;;5097780;28;20381;-71
2023/03/10 09:50:49;;;;;;;;;;;9.30;99.30;;;;;;5098281;28;19928;-72
2023/03/10 09:53:21;;;;;;;;;;;9.30;99.50;;;;;;5097769;27;19981;-70
2023/03/10 09:55:49;;;;;;;;;;;9.30;99.70;;;;;;5097359;28;19932;-72
2023/03/10 09:58:20;;;;;;;;;;;9.30;99.90;;;;;;5099510;28;19924;-71
2023/03/10 10:00:47;;;;;;;;;;;9.30;99.90;;;;;;5104110;27;19928;-71
2023/03/10 10:03:16;;;;;;;;;;;9.30;99.90;;;;;;5100929;28;19932;-70
2023/03/10 10:05:43;;;;;;;;;;;9.30;99.90;;;;;;5100694;28;20066;-72
2023/03/10 10:08:14;;;;;;;;;;;9.40;99.90;;;;;;5097993;27;19974;-71
2023/03/10 10:10:42;;;;;;;;;;;9.40;99.90;;;;;;5099779;27;19932;-72
2023/03/10 10:13:13;;;;;;;;;;;9.40;99.90;;;;;;5102531;27;19934;-72
2023/03/10 10:15:40;;;;;;;;;;;9.40;99.90;;;;;;5103304;27;20223;-72
2023/03/10 10:18:11;;;;;;;;;;;9.40;99.90;;;;;;5098099;27;20727;-71
2023/03/10 10:20:39;;;;;;;;;;;9.40;99.90;;;;;;5101709;27;19928;-73
2023/03/10 10:23:10;;;;;;;;;;;9.40;99.90;;;;;;5101254;27;20220;-81
2023/03/10 10:25:37;;;;;;;;;;;9.40;99.90;;;;;;5108916;27;19935;-82
2023/03/10 10:28:04;;;;;;;;;;;9.50;99.90;;;;;;5097290;28;19930;-81
2023/03/10 10:30:35;;;;;;;;;;;9.40;99.90;;;;;;5108275;27;19924;-83
2023/03/10 10:33:02;;;;;;;;;;;9.50;99.90;;;;;;5108473;27;20178;-80
2023/03/10 10:35:30;;;;;;;;;;;9.50;99.90;;;;;;5108418;27;19954;-83
2023/03/10 10:38:01;;;;;;;;;;;9.50;99.90;;;;;;5119981;27;20433;-84
2023/03/10 10:40:29;;;;;;;;;;;9.50;99.90;;;;;;5103577;27;19939;-79
2023/03/10 10:42:59;;;;;;;;;;;9.50;99.90;;;;;;5104103;28;19925;-84
2023/03/10 10:45:28;;;;;;;;;;;9.50;99.90;;;;;;5108462;27;20666;-80
2023/03/10 10:47:56;;;;;;;;;;;9.40;99.90;;;;;;5113686;28;19924;-80
2023/03/10 10:50:24;;;;;;;;;;;9.50;99.90;;;;;;5116119;27;19928;-80
2023/03/10 10:52:52;;;;;;;;;;;9.40;99.90;;;;;;5118844;27;19928;-80
2023/03/10 10:55:25;;;;;;;;;;;9.40;99.90;;;;;;5113296;27;19924;-81
2023/03/10 10:57:54;;;;;;;;;;;9.40;99.90;;;;;;5107227;28;19967;-79
2023/03/10 11:00:25;;;;;;;;;;;9.40;99.90;;;;;;5111949;27;20548;-80
2023/03/10 11:02:52;;;;;;;;;;;9.30;99.90;;;;;;5110250;27;19981;-80
2023/03/10 11:05:21;;;;;;;;;;;9.40;99.90;;;;;;5118530;27;19952;-79
2023/03/10 11:07:49;;;;;;;;;;;9.40;99.90;;;;;;5111472;27;19932;-80
2023/03/10 11:10:17;;;;;;;;;;;9.30;99.90;;;;;;5108330;27;19968;-79
2023/03/10 11:12:51;;;;;;;;;;;9.30;99.90;;;;;;5115034;28;19928;-79
2023/03/10 11:15:21;;;;;;;;;;;9.30;99.90;;;;;;5111064;27;19935;-78
2023/03/10 11:17:49;;;;;;;;;;;9.40;99.90;;;;;;5110722;27;19957;-80
2023/03/10 11:20:24;;;;;;;;;;;9.40;99.90;;;;;;5106801;27;19927;-80
2023/03/10 11:22:54;;;;;;;;;;;9.40;99.90;;;;;;5102871;27;19993;-80
2023/03/10 11:25:23;;;;;;;;;;;9.40;99.90;;;;;;5119787;27;19924;-80
2023/03/10 11:27:54;;;;;;;;;;;9.40;99.90;;;;;;5120012;27;19932;-78
2023/03/10 11:30:25;;;;;;;;;;;9.40;99.90;;;;;;5116666;27;19923;-79
2023/03/10 11:33:07;;;;;;;;;;;9.40;99.90;;;;;;5115795;28;19926;-78
2023/03/10 11:35:42;;;;;;;;;;;9.40;99.90;;;;;;5114977;27;19927;-79
2023/03/10 11:38:19;;;;;;;;;;;9.40;99.90;;;;;;5108417;28;19947;-77
2023/03/10 11:40:47;;;;;;;;;;;9.50;99.90;;;;;;5105848;28;20282;-78
2023/03/10 11:43:20;;;;;;;;;;;9.50;99.90;;;;;;5096833;28;19931;-74
2023/03/10 11:45:51;;;;;;;;;;;9.50;99.90;;;;;;5096261;27;20013;-71
2023/03/10 11:48:24;;;;;;;;;;;9.50;99.90;;;;;;5092300;28;19953;-71
2023/03/10 11:50:53;;;;;;;;;;;9.50;99.90;;;;;;5093741;28;19935;-72
2023/03/10 11:53:24;;;;;;;;;;;9.50;99.90;;;;;;5090213;28;19943;-72
2023/03/10 11:55:51;;;;;;;;;;;9.60;99.90;;;;;;5094087;28;19931;-73
2023/03/10 11:58:22;;;;;;;;;;;9.50;99.90;;;;;;5093251;27;20360;-71
2023/03/10 12:00:51;;;;;;;;;;;9.60;99.90;;;;;;5088092;28;19940;-71
2023/03/10 12:03:21;;;;;;;;;;;9.60;99.90;;;;;;5074193;28;19982;-71
2023/03/10 12:05:50;;;;;;;;;;;9.60;99.90;;;;;;5078636;28;19982;-71
2023/03/10 12:08:20;;;;;;;;;;;9.60;99.90;;;;;;5068224;28;20519;-71
2023/03/10 12:10:48;;;;;;;;;;;9.60;99.90;;;;;;5075372;28;20421;-72
2023/03/10 12:13:19;;;;;;;;;;;9.60;99.90;;;;;;5070914;28;19935;-71
2023/03/10 12:15:46;;;;;;;;;;;9.70;99.90;;;;;;5083956;28;20789;-71
2023/03/10 12:18:12;;;;;;;;;;;9.70;99.90;;;;;;5089638;28;19924;-72
2023/03/10 12:20:39;;;;;;;;;;;9.70;99.90;;;;;;5095763;28;19928;-71
2023/03/10 12:23:20;;;;;;;;;;;9.70;99.90;;;;;;5092022;28;19943;-73
2023/03/10 12:25:48;;;;;;;;;;;9.70;99.90;;;;;;5090446;28;19978;-71
2023/03/10 12:28:23;;;;;;;;;;;9.70;99.90;;;;;;5089114;28;19931;-71
2023/03/10 12:30:50;;;;;;;;;;;9.70;99.90;;;;;;5096823;28;19927;-70
2023/03/10 12:33:36;;;;;;;;;;;9.70;99.90;;;;;;5096355;28;19931;-72
2023/03/10 12:36:04;;;;;;;;;;;9.70;99.90;;;;;;5091168;28;19928;-72
2023/03/10 12:38:35;;;;;;;;;;;9.70;99.90;;;;;;5088405;28;19935;-72
2023/03/10 12:41:03;;;;;;;;;;;9.70;99.90;;;;;;5094060;28;19928;-71
2023/03/10 12:43:52;;;;;;;;;;;9.70;99.90;;;;;;5089828;28;19928;-71
2023/03/10 12:46:21;;;;;;;;;;;9.70;99.90;;;;;;5096377;28;19928;-72
2023/03/10 12:48:50;;;;;;;;;;;9.70;99.90;;;;;;5097090;28;20527;-71
2023/03/10 12:51:19;;;;;;;;;;;9.70;99.90;;;;;;5099822;28;20620;-71
2023/03/10 12:53:47;;;;;;;;;;;9.70;99.90;;;;;;5100618;28;19985;-71
2023/03/10 12:56:31;;;;;;;;;;;9.70;99.90;;;;;;5092670;27;19927;-71
2023/03/10 12:59:02;;;;;;;;;;;9.70;99.90;;;;;;5097423;28;20393;-71
2023/03/10 13:01:32;;;;;;;;;;;9.70;99.90;;;;;;5101419;28;20421;-71
2023/03/10 13:03:59;;;;;;;;;;;9.70;99.90;;;;;;5094294;28;20495;-72
2023/03/10 13:06:29;;;;;;;;;;;9.70;99.90;;;;;;5093392;28;19958;-71
2023/03/10 13:08:58;;;;;;;;;;;9.80;99.90;;;;;;5093720;28;20609;-71
2023/03/10 13:11:35;;;;;;;;;;;9.80;99.90;;;;;;5090642;28;20478;-73
2023/03/10 13:14:04;;;;;;;;;;;9.70;99.90;;;;;;5098756;28;19934;-79
2023/03/10 13:16:31;;;;;;;;;;;9.70;99.90;;;;;;5091287;27;19931;-79
2023/03/10 13:18:59;;;;;;;;;;;9.70;99.90;;;;;;5099076;28;19932;-81
2023/03/10 13:21:28;;;;;;;;;;;9.70;99.90;;;;;;5087896;28;19932;-79
2023/03/10 13:23:55;;;;;;;;;;;9.70;99.90;;;;;;5092273;28;20024;-79
2023/03/10 13:26:23;;;;;;;;;;;9.70;99.90;;;;;;5095065;28;19939;-80
2023/03/10 13:28:55;;;;;;;;;;;9.70;99.90;;;;;;5103400;28;19928;-80
2023/03/10 13:31:23;;;;;;;;;;;9.70;99.90;;;;;;5094511;27;19924;-81
2023/03/10 13:33:52;;;;;;;;;;;9.70;99.90;;;;;;5093679;27;19932;-72
2023/03/10 13:36:32;;;;;;;;;;;9.60;99.90;;;;;;5092503;28;21317;-72
2023/03/10 13:38:59;;;;;;;;;;;9.60;99.90;;;;;;5094929;28;19927;-71
2023/03/10 13:41:26;;;;;;;;;;;9.60;99.90;;;;;;5095827;28;19931;-72
2023/03/10 13:43:54;;;;;;;;;;;9.70;99.90;;;;;;5094050;28;20386;-72
2023/03/10 13:46:24;;;;;;;;;;;9.60;99.90;;;;;;5094026;27;19954;-71
2023/03/10 13:48:51;;;;;;;;;;;9.60;99.90;;;;;;5090250;28;19932;-71
2023/03/10 13:51:19;;;;;;;;;;;9.60;99.90;;;;;;5092859;28;19931;-72
2023/03/10 13:53:45;;;;;;;;;;;9.60;99.90;;;;;;5092456;27;19932;-71
2023/03/10 13:56:17;;;;;;;;;;;9.60;99.90;;;;;;5094217;28;19934;-71
2023/03/10 13:58:44;;;;;;;;;;;9.60;99.90;;;;;;5092336;28;20728;-71
2023/03/10 14:01:15;;;;;;;;;;;9.60;99.90;;;;;;5087119;28;19932;-72
2023/03/10 14:03:48;;;;;;;;;;;9.60;99.90;;;;;;5091492;28;19934;-70
2023/03/10 14:06:15;;;;;;;;;;;9.60;99.90;;;;;;5093686;28;19932;-68
2023/03/10 14:08:41;;;;;;;;;;;9.60;99.90;;;;;;5092253;27;20684;-72
2023/03/10 14:11:37;;;;;;;;;;;9.60;99.90;;;;;;5091748;28;19932;-70
2023/03/10 14:14:06;;;;;;;;;;;9.60;99.90;;;;;;5017894;28;20358;-72
2023/03/10 14:16:57;;;;;;;;;;;9.60;99.90;;;;;;5068506;27;19928;-71
2023/03/10 14:19:39;;;;;;;;;;;9.50;99.90;;;;;;5080302;28;20412;-73
2023/03/10 14:22:20;;;;;;;;;;;9.50;99.90;;;;;;5090191;28;19928;-71
2023/03/10 14:24:47;;;;;;;;;;;9.50;99.90;;;;;;5093744;28;20015;-72
2023/03/10 14:27:13;;;;;;;;;;;9.50;99.90;;;;;;5088946;28;20412;-71
2023/03/10 14:29:40;;;;;;;;;;;9.50;99.90;;;;;;5091895;27;20348;-73
2023/03/10 14:32:11;;;;;;;;;;;9.50;99.90;;;;;;5093019;27;19935;-72
2023/03/10 14:34:39;;;;;;;;;;;9.50;99.90;;;;;;5098514;28;20508;-71